METAR Data
IDs: Format: Raw Decoded Include TAF

Data at: 0003 UTC 25 Apr 2019

METAR for:KSUX (Sioux City/Day Fld, IA, US)
Text:KSUX 242352Z 00000KT 10SM CLR 25/06 A2971 RMK AO2 SLP060 T02500056 10261 20222 58016
Temperature: 25.0°C ( 77°F)
Dewpoint: 5.6°C ( 42°F) [RH = 29%]
Pressure (altimeter):29.71 inches Hg (1006.2 mb) [Sea level pressure: 1006.0 mb]
Winds:calm
Visibility:10 or more sm (16+ km)
Ceiling:at least 12,000 feet AGL
Clouds:sky clear below 12,000 feet AGL